sensor_id;sensor_type;location;lat;lon;timestamp;P1;durP1;ratioP1;P2;durP2;ratioP2
73382;SDS011;61600;48.126;11.542;2024-01-10T00:01:13;29.52;;;10.77;;
73382;SDS011;61600;48.126;11.542;2024-01-10T00:03:43;27.77;;;10.25;;
73382;SDS011;61600;48.126;11.542;2024-01-10T00:06:12;32.83;;;12.13;;
73382;SDS011;61600;48.126;11.542;2024-01-10T00:08:38;33.10;;;10.77;;
73382;SDS011;61600;48.126;11.542;2024-01-10T00:11:06;32.83;;;10.90;;
73382;SDS011;61600;48.126;11.542;2024-01-10T00:13:38;29.45;;;9.77;;
73382;SDS011;61600;48.126;11.542;2024-01-10T00:16:04;25.63;;;9.40;;
73382;SDS011;61600;48.126;11.542;2024-01-10T00:18:30;33.72;;;10.65;;
73382;SDS011;61600;48.126;11.542;2024-01-10T00:20:58;30.52;;;10.60;;
73382;SDS011;61600;48.126;11.542;2024-01-10T00:23:26;31.00;;;10.02;;
73382;SDS011;61600;48.126;11.542;2024-01-10T00:25:52;22.75;;;9.18;;
73382;SDS011;61600;48.126;11.542;2024-01-10T00:28:19;24.25;;;8.40;;
73382;SDS011;61600;48.126;11.542;2024-01-10T00:30:45;29.33;;;10.77;;
73382;SDS011;61600;48.126;11.542;2024-01-10T00:33:14;27.70;;;9.30;;
73382;SDS011;61600;48.126;11.542;2024-01-10T00:35:39;27.05;;;10.25;;
73382;SDS011;61600;48.126;11.542;2024-01-10T00:38:05;27.05;;;10.05;;
73382;SDS011;61600;48.126;11.542;2024-01-10T00:40:31;34.25;;;11.68;;
73382;SDS011;61600;48.126;11.542;2024-01-10T00:42:57;26.73;;;10.75;;
73382;SDS011;61600;48.126;11.542;2024-01-10T00:45:24;32.60;;;11.13;;
73382;SDS011;61600;48.126;11.542;2024-01-10T00:47:51;29.58;;;10.82;;
73382;SDS011;61600;48.126;11.542;2024-01-10T00:50:18;36.53;;;12.35;;
73382;SDS011;61600;48.126;11.542;2024-01-10T00:52:45;29.20;;;9.95;;
73382;SDS011;61600;48.126;11.542;2024-01-10T00:55:11;31.05;;;10.85;;
73382;SDS011;61600;48.126;11.542;2024-01-10T00:57:37;20.58;;;8.95;;
73382;SDS011;61600;48.126;11.542;2024-01-10T01:00:08;32.65;;;12.48;;
73382;SDS011;61600;48.126;11.542;2024-01-10T01:02:36;34.42;;;11.05;;
73382;SDS011;61600;48.126;11.542;2024-01-10T01:05:04;36.38;;;13.32;;
73382;SDS011;61600;48.126;11.542;2024-01-10T01:07:34;33.70;;;12.07;;
73382;SDS011;61600;48.126;11.542;2024-01-10T01:10:00;18.38;;;7.18;;
73382;SDS011;61600;48.126;11.542;2024-01-10T01:12:28;27.50;;;9.73;;
73382;SDS011;61600;48.126;11.542;2024-01-10T01:14:54;29.40;;;9.95;;
73382;SDS011;61600;48.126;11.542;2024-01-10T01:17:21;34.28;;;11.20;;
73382;SDS011;61600;48.126;11.542;2024-01-10T01:19:49;30.90;;;10.55;;
73382;SDS011;61600;48.126;11.542;2024-01-10T01:22:16;36.65;;;12.15;;
73382;SDS011;61600;48.126;11.542;2024-01-10T01:24:42;26.98;;;10.20;;
73382;SDS011;61600;48.126;11.542;2024-01-10T01:27:09;15.77;;;6.75;;
73382;SDS011;61600;48.126;11.542;2024-01-10T01:29:35;30.67;;;11.50;;
73382;SDS011;61600;48.126;11.542;2024-01-10T01:32:01;29.90;;;10.18;;
73382;SDS011;61600;48.126;11.542;2024-01-10T01:34:32;23.38;;;7.20;;
73382;SDS011;61600;48.126;11.542;2024-01-10T01:36:58;33.33;;;11.45;;
73382;SDS011;61600;48.126;11.542;2024-01-10T01:39:26;29.58;;;10.15;;
73382;SDS011;61600;48.126;11.542;2024-01-10T01:41:58;29.67;;;10.35;;
73382;SDS011;61600;48.126;11.542;2024-01-10T01:44:24;20.65;;;7.65;;
73382;SDS011;61600;48.126;11.542;2024-01-10T01:46:52;25.00;;;8.05;;
73382;SDS011;61600;48.126;11.542;2024-01-10T01:49:24;29.63;;;10.50;;
73382;SDS011;61600;48.126;11.542;2024-01-10T01:51:54;34.85;;;10.93;;
73382;SDS011;61600;48.126;11.542;2024-01-10T01:54:21;34.78;;;11.70;;
73382;SDS011;61600;48.126;11.542;2024-01-10T01:56:48;36.22;;;11.35;;
73382;SDS011;61600;48.126;11.542;2024-01-10T01:59:15;31.88;;;11.05;;
73382;SDS011;61600;48.126;11.542;2024-01-10T02:01:41;35.53;;;12.70;;
73382;SDS011;61600;48.126;11.542;2024-01-10T02:04:07;29.00;;;11.63;;
73382;SDS011;61600;48.126;11.542;2024-01-10T02:06:34;29.65;;;10.23;;
73382;SDS011;61600;48.126;11.542;2024-01-10T02:09:03;42.05;;;12.70;;
73382;SDS011;61600;48.126;11.542;2024-01-10T02:11:29;35.03;;;11.88;;
73382;SDS011;61600;48.126;11.542;2024-01-10T02:13:57;34.00;;;11.02;;
73382;SDS011;61600;48.126;11.542;2024-01-10T02:16:23;31.02;;;10.27;;
73382;SDS011;61600;48.126;11.542;2024-01-10T02:18:50;35.75;;;11.48;;
73382;SDS011;61600;48.126;11.542;2024-01-10T02:21:20;27.88;;;10.27;;
73382;SDS011;61600;48.126;11.542;2024-01-10T02:23:51;29.48;;;11.60;;
73382;SDS011;61600;48.126;11.542;2024-01-10T02:26:17;34.40;;;10.95;;
73382;SDS011;61600;48.126;11.542;2024-01-10T02:28:44;27.60;;;10.18;;
73382;SDS011;61600;48.126;11.542;2024-01-10T02:31:10;25.15;;;9.50;;
73382;SDS011;61600;48.126;11.542;2024-01-10T02:33:36;34.42;;;10.60;;
73382;SDS011;61600;48.126;11.542;2024-01-10T02:36:02;30.10;;;9.45;;
73382;SDS011;61600;48.126;11.542;2024-01-10T02:38:28;31.65;;;11.30;;
73382;SDS011;61600;48.126;11.542;2024-01-10T02:40:55;37.67;;;12.10;;
73382;SDS011;61600;48.126;11.542;2024-01-10T02:43:22;32.22;;;10.63;;
73382;SDS011;61600;48.126;11.542;2024-01-10T02:45:47;42.75;;;12.48;;
73382;SDS011;61600;48.126;11.542;2024-01-10T02:48:13;35.17;;;12.10;;
73382;SDS011;61600;48.126;11.542;2024-01-10T02:50:39;33.17;;;12.40;;
73382;SDS011;61600;48.126;11.542;2024-01-10T02:53:06;38.15;;;12.93;;
73382;SDS011;61600;48.126;11.542;2024-01-10T02:55:33;33.45;;;12.65;;
73382;SDS011;61600;48.126;11.542;2024-01-10T02:57:59;29.88;;;11.07;;
73382;SDS011;61600;48.126;11.542;2024-01-10T03:00:25;36.47;;;12.73;;
73382;SDS011;61600;48.126;11.542;2024-01-10T03:02:51;33.42;;;12.20;;
73382;SDS011;61600;48.126;11.542;2024-01-10T03:05:18;35.70;;;11.45;;
73382;SDS011;61600;48.126;11.542;2024-01-10T03:07:46;38.50;;;12.75;;
73382;SDS011;61600;48.126;11.542;2024-01-10T03:10:13;34.83;;;12.75;;
73382;SDS011;61600;48.126;11.542;2024-01-10T03:12:39;33.45;;;12.27;;
73382;SDS011;61600;48.126;11.542;2024-01-10T03:15:06;31.15;;;11.30;;
73382;SDS011;61600;48.126;11.542;2024-01-10T03:17:33;37.78;;;11.85;;
73382;SDS011;61600;48.126;11.542;2024-01-10T03:20:01;29.00;;;10.10;;
73382;SDS011;61600;48.126;11.542;2024-01-10T03:22:29;34.97;;;11.30;;
73382;SDS011;61600;48.126;11.542;2024-01-10T03:24:55;33.75;;;10.75;;
73382;SDS011;61600;48.126;11.542;2024-01-10T03:27:21;30.85;;;10.63;;
73382;SDS011;61600;48.126;11.542;2024-01-10T03:29:48;40.97;;;13.57;;
73382;SDS011;61600;48.126;11.542;2024-01-10T03:32:14;39.25;;;12.60;;
73382;SDS011;61600;48.126;11.542;2024-01-10T03:34:41;35.47;;;12.00;;
73382;SDS011;61600;48.126;11.542;2024-01-10T03:37:08;26.85;;;10.43;;
73382;SDS011;61600;48.126;11.542;2024-01-10T03:39:34;26.92;;;9.73;;
73382;SDS011;61600;48.126;11.542;2024-01-10T03:41:59;30.17;;;9.45;;
73382;SDS011;61600;48.126;11.542;2024-01-10T03:44:28;34.22;;;11.73;;
73382;SDS011;61600;48.126;11.542;2024-01-10T03:46:54;34.75;;;11.23;;
73382;SDS011;61600;48.126;11.542;2024-01-10T03:49:20;26.15;;;9.27;;
73382;SDS011;61600;48.126;11.542;2024-01-10T03:51:46;35.00;;;11.10;;
73382;SDS011;61600;48.126;11.542;2024-01-10T03:54:11;33.08;;;11.68;;
73382;SDS011;61600;48.126;11.542;2024-01-10T03:56:37;29.48;;;10.68;;
73382;SDS011;61600;48.126;11.542;2024-01-10T03:59:03;38.33;;;12.10;;
73382;SDS011;61600;48.126;11.542;2024-01-10T04:01:29;35.45;;;10.93;;
73382;SDS011;61600;48.126;11.542;2024-01-10T04:03:55;34.80;;;10.25;;
73382;SDS011;61600;48.126;11.542;2024-01-10T04:06:21;37.15;;;12.93;;
73382;SDS011;61600;48.126;11.542;2024-01-10T04:08:47;29.55;;;9.88;;
73382;SDS011;61600;48.126;11.542;2024-01-10T04:11:13;34.35;;;10.18;;
73382;SDS011;61600;48.126;11.542;2024-01-10T04:13:39;32.45;;;10.30;;
73382;SDS011;61600;48.126;11.542;2024-01-10T04:16:05;28.60;;;10.50;;
73382;SDS011;61600;48.126;11.542;2024-01-10T04:18:31;37.67;;;12.10;;
73382;SDS011;61600;48.126;11.542;2024-01-10T04:20:59;25.33;;;9.57;;
73382;SDS011;61600;48.126;11.542;2024-01-10T04:23:25;24.02;;;10.98;;
73382;SDS011;61600;48.126;11.542;2024-01-10T04:25:51;30.33;;;10.88;;
73382;SDS011;61600;48.126;11.542;2024-01-10T04:28:17;28.77;;;10.90;;
73382;SDS011;61600;48.126;11.542;2024-01-10T04:30:43;31.33;;;10.70;;
73382;SDS011;61600;48.126;11.542;2024-01-10T04:33:09;32.47;;;11.02;;
73382;SDS011;61600;48.126;11.542;2024-01-10T04:35:34;26.15;;;8.75;;
73382;SDS011;61600;48.126;11.542;2024-01-10T04:38:00;29.38;;;9.75;;
73382;SDS011;61600;48.126;11.542;2024-01-10T04:40:26;29.65;;;10.90;;
73382;SDS011;61600;48.126;11.542;2024-01-10T04:42:54;32.17;;;11.98;;
73382;SDS011;61600;48.126;11.542;2024-01-10T04:45:20;31.00;;;10.32;;
73382;SDS011;61600;48.126;11.542;2024-01-10T04:47:47;27.80;;;10.10;;
73382;SDS011;61600;48.126;11.542;2024-01-10T04:50:13;27.38;;;10.27;;
73382;SDS011;61600;48.126;11.542;2024-01-10T04:52:40;32.60;;;10.13;;
73382;SDS011;61600;48.126;11.542;2024-01-10T04:55:07;31.80;;;10.75;;
73382;SDS011;61600;48.126;11.542;2024-01-10T04:57:34;29.55;;;9.65;;
73382;SDS011;61600;48.126;11.542;2024-01-10T04:59:59;33.60;;;10.68;;
73382;SDS011;61600;48.126;11.542;2024-01-10T05:02:30;33.53;;;11.60;;
73382;SDS011;61600;48.126;11.542;2024-01-10T05:04:57;28.73;;;10.20;;
73382;SDS011;61600;48.126;11.542;2024-01-10T05:07:24;37.70;;;12.00;;
73382;SDS011;61600;48.126;11.542;2024-01-10T05:09:54;38.25;;;12.07;;
73382;SDS011;61600;48.126;11.542;2024-01-10T05:12:22;36.45;;;10.70;;
73382;SDS011;61600;48.126;11.542;2024-01-10T05:14:50;30.92;;;10.07;;
73382;SDS011;61600;48.126;11.542;2024-01-10T05:17:19;37.03;;;10.90;;
73382;SDS011;61600;48.126;11.542;2024-01-10T05:19:45;35.38;;;10.25;;
73382;SDS011;61600;48.126;11.542;2024-01-10T05:22:11;32.88;;;10.23;;
73382;SDS011;61600;48.126;11.542;2024-01-10T05:24:36;35.13;;;11.60;;
73382;SDS011;61600;48.126;11.542;2024-01-10T05:27:05;29.67;;;10.88;;
73382;SDS011;61600;48.126;11.542;2024-01-10T05:29:36;30.98;;;9.85;;
73382;SDS011;61600;48.126;11.542;2024-01-10T05:32:04;32.30;;;11.07;;
73382;SDS011;61600;48.126;11.542;2024-01-10T05:34:30;32.47;;;11.23;;
73382;SDS011;61600;48.126;11.542;2024-01-10T05:36:58;30.35;;;10.88;;
73382;SDS011;61600;48.126;11.542;2024-01-10T05:39:24;29.35;;;10.68;;
73382;SDS011;61600;48.126;11.542;2024-01-10T05:41:52;27.58;;;9.20;;
73382;SDS011;61600;48.126;11.542;2024-01-10T05:44:18;31.30;;;10.00;;
73382;SDS011;61600;48.126;11.542;2024-01-10T05:46:49;27.60;;;8.85;;
73382;SDS011;61600;48.126;11.542;2024-01-10T05:49:15;28.80;;;9.20;;
73382;SDS011;61600;48.126;11.542;2024-01-10T05:51:41;34.63;;;11.40;;
73382;SDS011;61600;48.126;11.542;2024-01-10T05:54:11;29.98;;;10.65;;
73382;SDS011;61600;48.126;11.542;2024-01-10T05:57:00;28.67;;;10.32;;
73382;SDS011;61600;48.126;11.542;2024-01-10T05:59:29;34.40;;;11.02;;
73382;SDS011;61600;48.126;11.542;2024-01-10T06:02:34;32.28;;;10.20;;
73382;SDS011;61600;48.126;11.542;2024-01-10T06:05:42;30.55;;;9.63;;
73382;SDS011;61600;48.126;11.542;2024-01-10T06:08:17;28.88;;;9.45;;
73382;SDS011;61600;48.126;11.542;2024-01-10T06:11:19;31.40;;;9.38;;
73382;SDS011;61600;48.126;11.542;2024-01-10T06:14:06;31.88;;;10.77;;
73382;SDS011;61600;48.126;11.542;2024-01-10T06:16:44;26.58;;;8.27;;
73382;SDS011;61600;48.126;11.542;2024-01-10T06:19:15;29.05;;;9.95;;
73382;SDS011;61600;48.126;11.542;2024-01-10T06:21:45;34.45;;;10.02;;
73382;SDS011;61600;48.126;11.542;2024-01-10T06:24:47;33.00;;;10.63;;
73382;SDS011;61600;48.126;11.542;2024-01-10T06:27:16;24.75;;;9.75;;
73382;SDS011;61600;48.126;11.542;2024-01-10T06:29:47;34.80;;;10.23;;
73382;SDS011;61600;48.126;11.542;2024-01-10T06:36:02;32.03;;;10.65;;
73382;SDS011;61600;48.126;11.542;2024-01-10T06:38:35;37.28;;;10.43;;
73382;SDS011;61600;48.126;11.542;2024-01-10T06:48:52;33.00;;;10.40;;
73382;SDS011;61600;48.126;11.542;2024-01-10T06:51:19;33.58;;;10.38;;
73382;SDS011;61600;48.126;11.542;2024-01-10T06:53:51;36.13;;;11.10;;
73382;SDS011;61600;48.126;11.542;2024-01-10T06:56:35;34.65;;;11.65;;
73382;SDS011;61600;48.126;11.542;2024-01-10T06:59:13;37.42;;;10.18;;
73382;SDS011;61600;48.126;11.542;2024-01-10T07:01:42;27.42;;;9.40;;
73382;SDS011;61600;48.126;11.542;2024-01-10T07:04:11;29.35;;;11.07;;
73382;SDS011;61600;48.126;11.542;2024-01-10T07:06:38;29.90;;;10.43;;
73382;SDS011;61600;48.126;11.542;2024-01-10T07:09:04;31.88;;;10.43;;
73382;SDS011;61600;48.126;11.542;2024-01-10T07:11:30;28.95;;;10.32;;
73382;SDS011;61600;48.126;11.542;2024-01-10T07:13:56;26.85;;;9.82;;
73382;SDS011;61600;48.126;11.542;2024-01-10T07:16:23;30.42;;;9.32;;
73382;SDS011;61600;48.126;11.542;2024-01-10T07:18:50;37.28;;;11.27;;
73382;SDS011;61600;48.126;11.542;2024-01-10T07:21:21;31.52;;;11.00;;
73382;SDS011;61600;48.126;11.542;2024-01-10T07:23:47;28.83;;;10.00;;
73382;SDS011;61600;48.126;11.542;2024-01-10T07:26:15;31.17;;;9.60;;
73382;SDS011;61600;48.126;11.542;2024-01-10T07:28:42;29.23;;;10.02;;
73382;SDS011;61600;48.126;11.542;2024-01-10T07:31:23;28.92;;;10.82;;
73382;SDS011;61600;48.126;11.542;2024-01-10T07:33:57;28.35;;;9.35;;
73382;SDS011;61600;48.126;11.542;2024-01-10T07:36:23;30.13;;;10.27;;
73382;SDS011;61600;48.126;11.542;2024-01-10T07:38:56;32.35;;;10.18;;
73382;SDS011;61600;48.126;11.542;2024-01-10T07:41:41;26.95;;;9.07;;
73382;SDS011;61600;48.126;11.542;2024-01-10T07:44:08;34.22;;;9.65;;
73382;SDS011;61600;48.126;11.542;2024-01-10T07:46:35;34.03;;;11.35;;
73382;SDS011;61600;48.126;11.542;2024-01-10T07:49:03;35.03;;;10.48;;
73382;SDS011;61600;48.126;11.542;2024-01-10T07:51:37;35.78;;;11.10;;
73382;SDS011;61600;48.126;11.542;2024-01-10T07:56:34;30.10;;;10.02;;
73382;SDS011;61600;48.126;11.542;2024-01-10T07:59:00;35.42;;;10.52;;
73382;SDS011;61600;48.126;11.542;2024-01-10T08:01:27;36.58;;;11.85;;
73382;SDS011;61600;48.126;11.542;2024-01-10T08:03:53;34.42;;;11.38;;
73382;SDS011;61600;48.126;11.542;2024-01-10T08:06:25;37.47;;;10.25;;
73382;SDS011;61600;48.126;11.542;2024-01-10T08:08:51;35.28;;;11.10;;
73382;SDS011;61600;48.126;11.542;2024-01-10T08:11:17;39.65;;;12.52;;
73382;SDS011;61600;48.126;11.542;2024-01-10T08:13:44;35.35;;;11.10;;
73382;SDS011;61600;48.126;11.542;2024-01-10T08:16:10;40.65;;;12.43;;
73382;SDS011;61600;48.126;11.542;2024-01-10T08:18:36;35.85;;;12.00;;
73382;SDS011;61600;48.126;11.542;2024-01-10T08:21:02;42.65;;;12.73;;
73382;SDS011;61600;48.126;11.542;2024-01-10T08:23:29;34.45;;;10.65;;
73382;SDS011;61600;48.126;11.542;2024-01-10T08:25:55;37.58;;;13.15;;
73382;SDS011;61600;48.126;11.542;2024-01-10T08:28:22;37.50;;;11.93;;
73382;SDS011;61600;48.126;11.542;2024-01-10T08:30:51;33.03;;;11.82;;
73382;SDS011;61600;48.126;11.542;2024-01-10T08:35:45;29.52;;;9.60;;
73382;SDS011;61600;48.126;11.542;2024-01-10T08:38:11;39.25;;;12.05;;
73382;SDS011;61600;48.126;11.542;2024-01-10T08:40:40;37.00;;;11.68;;
73382;SDS011;61600;48.126;11.542;2024-01-10T08:43:06;35.72;;;10.82;;
73382;SDS011;61600;48.126;11.542;2024-01-10T08:45:32;32.90;;;11.55;;
73382;SDS011;61600;48.126;11.542;2024-01-10T08:47:58;32.00;;;10.73;;
73382;SDS011;61600;48.126;11.542;2024-01-10T08:50:24;42.25;;;12.75;;
73382;SDS011;61600;48.126;11.542;2024-01-10T08:52:52;34.75;;;10.73;;
73382;SDS011;61600;48.126;11.542;2024-01-10T08:55:18;36.80;;;11.65;;
73382;SDS011;61600;48.126;11.542;2024-01-10T08:57:45;39.50;;;12.82;;
73382;SDS011;61600;48.126;11.542;2024-01-10T09:00:11;45.70;;;14.85;;
73382;SDS011;61600;48.126;11.542;2024-01-10T09:02:42;39.53;;;12.05;;
73382;SDS011;61600;48.126;11.542;2024-01-10T09:05:09;40.13;;;12.63;;
73382;SDS011;61600;48.126;11.542;2024-01-10T09:07:36;40.08;;;11.65;;
73382;SDS011;61600;48.126;11.542;2024-01-10T09:10:02;44.65;;;13.65;;
73382;SDS011;61600;48.126;11.542;2024-01-10T09:12:30;38.22;;;13.25;;
73382;SDS011;61600;48.126;11.542;2024-01-10T09:14:56;38.50;;;12.73;;
73382;SDS011;61600;48.126;11.542;2024-01-10T09:17:22;36.35;;;12.88;;
73382;SDS011;61600;48.126;11.542;2024-01-10T09:19:49;40.90;;;12.55;;
73382;SDS011;61600;48.126;11.542;2024-01-10T09:22:16;32.30;;;11.68;;
73382;SDS011;61600;48.126;11.542;2024-01-10T09:24:42;39.85;;;13.85;;
73382;SDS011;61600;48.126;11.542;2024-01-10T09:27:07;40.33;;;12.45;;
73382;SDS011;61600;48.126;11.542;2024-01-10T09:29:35;37.35;;;12.57;;
73382;SDS011;61600;48.126;11.542;2024-01-10T09:32:01;35.30;;;11.30;;
73382;SDS011;61600;48.126;11.542;2024-01-10T09:34:32;38.20;;;12.13;;
73382;SDS011;61600;48.126;11.542;2024-01-10T09:36:59;35.15;;;12.52;;
73382;SDS011;61600;48.126;11.542;2024-01-10T09:39:27;41.97;;;12.75;;
73382;SDS011;61600;48.126;11.542;2024-01-10T09:41:52;35.85;;;12.13;;
73382;SDS011;61600;48.126;11.542;2024-01-10T09:44:19;35.15;;;12.38;;
73382;SDS011;61600;48.126;11.542;2024-01-10T09:46:48;40.45;;;13.52;;
73382;SDS011;61600;48.126;11.542;2024-01-10T09:49:17;33.33;;;12.02;;
73382;SDS011;61600;48.126;11.542;2024-01-10T09:51:44;39.45;;;12.98;;
73382;SDS011;61600;48.126;11.542;2024-01-10T09:54:14;35.55;;;12.43;;
73382;SDS011;61600;48.126;11.542;2024-01-10T09:56:53;37.92;;;12.07;;
73382;SDS011;61600;48.126;11.542;2024-01-10T09:59:21;38.05;;;13.25;;
73382;SDS011;61600;48.126;11.542;2024-01-10T10:01:47;35.20;;;11.57;;
73382;SDS011;61600;48.126;11.542;2024-01-10T10:04:16;38.92;;;12.45;;
73382;SDS011;61600;48.126;11.542;2024-01-10T10:06:44;34.45;;;10.50;;
73382;SDS011;61600;48.126;11.542;2024-01-10T10:09:21;29.77;;;10.77;;
73382;SDS011;61600;48.126;11.542;2024-01-10T10:11:54;40.10;;;12.50;;
73382;SDS011;61600;48.126;11.542;2024-01-10T10:14:28;32.35;;;12.15;;
73382;SDS011;61600;48.126;11.542;2024-01-10T10:16:56;36.13;;;10.95;;
73382;SDS011;61600;48.126;11.542;2024-01-10T10:19:44;36.28;;;11.88;;
73382;SDS011;61600;48.126;11.542;2024-01-10T10:22:10;34.65;;;12.95;;
73382;SDS011;61600;48.126;11.542;2024-01-10T10:24:52;28.33;;;11.15;;
73382;SDS011;61600;48.126;11.542;2024-01-10T10:27:25;35.13;;;11.88;;
73382;SDS011;61600;48.126;11.542;2024-01-10T10:29:55;31.95;;;12.27;;
73382;SDS011;61600;48.126;11.542;2024-01-10T10:32:22;47.53;;;14.70;;
73382;SDS011;61600;48.126;11.542;2024-01-10T10:34:49;34.88;;;11.68;;
73382;SDS011;61600;48.126;11.542;2024-01-10T10:37:16;33.15;;;12.90;;
73382;SDS011;61600;48.126;11.542;2024-01-10T10:39:42;40.55;;;13.93;;
73382;SDS011;61600;48.126;11.542;2024-01-10T10:42:08;36.45;;;13.43;;
73382;SDS011;61600;48.126;11.542;2024-01-10T10:44:37;37.22;;;12.75;;
73382;SDS011;61600;48.126;11.542;2024-01-10T10:47:08;38.00;;;12.52;;
73382;SDS011;61600;48.126;11.542;2024-01-10T10:49:36;37.65;;;13.40;;
73382;SDS011;61600;48.126;11.542;2024-01-10T10:52:18;34.35;;;12.63;;
73382;SDS011;61600;48.126;11.542;2024-01-10T10:54:46;35.17;;;12.90;;
73382;SDS011;61600;48.126;11.542;2024-01-10T10:57:17;38.63;;;11.95;;
73382;SDS011;61600;48.126;11.542;2024-01-10T10:59:46;34.08;;;12.60;;
73382;SDS011;61600;48.126;11.542;2024-01-10T11:02:16;36.88;;;12.77;;
73382;SDS011;61600;48.126;11.542;2024-01-10T11:04:48;38.67;;;13.55;;
73382;SDS011;61600;48.126;11.542;2024-01-10T11:07:15;33.33;;;13.57;;
73382;SDS011;61600;48.126;11.542;2024-01-10T11:09:42;39.45;;;12.15;;
73382;SDS011;61600;48.126;11.542;2024-01-10T11:14:53;36.75;;;12.70;;
73382;SDS011;61600;48.126;11.542;2024-01-10T11:23:43;39.38;;;12.75;;
73382;SDS011;61600;48.126;11.542;2024-01-10T11:26:14;35.95;;;12.25;;
73382;SDS011;61600;48.126;11.542;2024-01-10T11:28:41;38.60;;;13.40;;
73382;SDS011;61600;48.126;11.542;2024-01-10T11:31:09;37.03;;;12.20;;
73382;SDS011;61600;48.126;11.542;2024-01-10T11:33:43;40.63;;;13.88;;
73382;SDS011;61600;48.126;11.542;2024-01-10T11:36:14;36.30;;;13.82;;
73382;SDS011;61600;48.126;11.542;2024-01-10T11:41:38;38.22;;;14.07;;
73382;SDS011;61600;48.126;11.542;2024-01-10T11:49:13;39.70;;;13.85;;
73382;SDS011;61600;48.126;11.542;2024-01-10T11:51:45;33.50;;;12.82;;
73382;SDS011;61600;48.126;11.542;2024-01-10T11:54:11;38.70;;;13.10;;
73382;SDS011;61600;48.126;11.542;2024-01-10T11:56:40;35.45;;;13.32;;
73382;SDS011;61600;48.126;11.542;2024-01-10T11:59:11;37.55;;;13.55;;
73382;SDS011;61600;48.126;11.542;2024-01-10T12:01:41;44.60;;;14.57;;
73382;SDS011;61600;48.126;11.542;2024-01-10T12:04:08;43.22;;;15.48;;
73382;SDS011;61600;48.126;11.542;2024-01-10T12:06:37;39.83;;;13.07;;
73382;SDS011;61600;48.126;11.542;2024-01-10T12:09:04;42.83;;;14.68;;
73382;SDS011;61600;48.126;11.542;2024-01-10T12:11:40;49.63;;;17.08;;
73382;SDS011;61600;48.126;11.542;2024-01-10T12:14:10;43.08;;;14.27;;
73382;SDS011;61600;48.126;11.542;2024-01-10T12:16:37;41.63;;;14.82;;
73382;SDS011;61600;48.126;11.542;2024-01-10T12:19:04;41.13;;;15.23;;
73382;SDS011;61600;48.126;11.542;2024-01-10T12:21:30;41.05;;;14.27;;
73382;SDS011;61600;48.126;11.542;2024-01-10T12:23:56;47.22;;;16.02;;
73382;SDS011;61600;48.126;11.542;2024-01-10T12:26:23;47.65;;;15.43;;
73382;SDS011;61600;48.126;11.542;2024-01-10T12:28:55;46.30;;;14.90;;
73382;SDS011;61600;48.126;11.542;2024-01-10T12:31:23;49.03;;;16.73;;
73382;SDS011;61600;48.126;11.542;2024-01-10T12:33:52;43.03;;;14.63;;
73382;SDS011;61600;48.126;11.542;2024-01-10T12:36:18;40.08;;;14.95;;
73382;SDS011;61600;48.126;11.542;2024-01-10T12:38:45;38.85;;;14.25;;
73382;SDS011;61600;48.126;11.542;2024-01-10T12:41:18;49.83;;;17.08;;
73382;SDS011;61600;48.126;11.542;2024-01-10T12:43:54;50.83;;;16.52;;
73382;SDS011;61600;48.126;11.542;2024-01-10T12:46:27;45.80;;;15.35;;
73382;SDS011;61600;48.126;11.542;2024-01-10T12:49:03;42.38;;;14.88;;
73382;SDS011;61600;48.126;11.542;2024-01-10T12:51:34;41.00;;;14.88;;
73382;SDS011;61600;48.126;11.542;2024-01-10T12:54:03;42.00;;;13.48;;
73382;SDS011;61600;48.126;11.542;2024-01-10T12:56:30;44.25;;;15.40;;
73382;SDS011;61600;48.126;11.542;2024-01-10T12:58:56;45.75;;;16.25;;
73382;SDS011;61600;48.126;11.542;2024-01-10T13:01:23;42.00;;;15.68;;
73382;SDS011;61600;48.126;11.542;2024-01-10T13:03:51;43.33;;;14.82;;
73382;SDS011;61600;48.126;11.542;2024-01-10T13:06:20;37.22;;;14.32;;
73382;SDS011;61600;48.126;11.542;2024-01-10T13:08:53;46.97;;;15.18;;
73382;SDS011;61600;48.126;11.542;2024-01-10T13:11:20;43.45;;;14.80;;
73382;SDS011;61600;48.126;11.542;2024-01-10T13:13:47;48.78;;;17.20;;
73382;SDS011;61600;48.126;11.542;2024-01-10T13:16:13;51.67;;;15.10;;
73382;SDS011;61600;48.126;11.542;2024-01-10T13:18:39;47.25;;;15.43;;
73382;SDS011;61600;48.126;11.542;2024-01-10T13:21:06;46.80;;;17.20;;
73382;SDS011;61600;48.126;11.542;2024-01-10T13:23:34;44.53;;;15.73;;
73382;SDS011;61600;48.126;11.542;2024-01-10T13:26:01;44.90;;;15.00;;
73382;SDS011;61600;48.126;11.542;2024-01-10T13:28:29;46.15;;;16.73;;
73382;SDS011;61600;48.126;11.542;2024-01-10T13:30:55;42.60;;;15.85;;
73382;SDS011;61600;48.126;11.542;2024-01-10T13:33:21;42.53;;;15.85;;
73382;SDS011;61600;48.126;11.542;2024-01-10T13:35:51;47.40;;;14.88;;
73382;SDS011;61600;48.126;11.542;2024-01-10T13:38:21;40.25;;;13.77;;
73382;SDS011;61600;48.126;11.542;2024-01-10T13:40:51;42.28;;;14.85;;
73382;SDS011;61600;48.126;11.542;2024-01-10T13:43:17;39.40;;;15.88;;
73382;SDS011;61600;48.126;11.542;2024-01-10T13:45:43;44.95;;;14.43;;
73382;SDS011;61600;48.126;11.542;2024-01-10T13:48:14;40.15;;;14.75;;
73382;SDS011;61600;48.126;11.542;2024-01-10T13:50:45;43.33;;;13.70;;
73382;SDS011;61600;48.126;11.542;2024-01-10T13:53:28;41.63;;;14.60;;
73382;SDS011;61600;48.126;11.542;2024-01-10T13:55:59;39.80;;;13.65;;
73382;SDS011;61600;48.126;11.542;2024-01-10T13:58:56;42.47;;;13.40;;
73382;SDS011;61600;48.126;11.542;2024-01-10T14:01:55;47.13;;;14.90;;
73382;SDS011;61600;48.126;11.542;2024-01-10T14:04:22;45.25;;;14.70;;
73382;SDS011;61600;48.126;11.542;2024-01-10T14:06:53;46.92;;;14.77;;
73382;SDS011;61600;48.126;11.542;2024-01-10T14:09:30;41.28;;;14.23;;
73382;SDS011;61600;48.126;11.542;2024-01-10T14:12:14;42.30;;;15.25;;
73382;SDS011;61600;48.126;11.542;2024-01-10T14:14:41;42.63;;;15.27;;
73382;SDS011;61600;48.126;11.542;2024-01-10T14:17:06;42.13;;;14.98;;
73382;SDS011;61600;48.126;11.542;2024-01-10T14:19:35;44.78;;;15.88;;
73382;SDS011;61600;48.126;11.542;2024-01-10T14:24:30;39.47;;;13.40;;
73382;SDS011;61600;48.126;11.542;2024-01-10T14:26:58;37.78;;;13.10;;
73382;SDS011;61600;48.126;11.542;2024-01-10T14:29:27;42.47;;;14.48;;
73382;SDS011;61600;48.126;11.542;2024-01-10T14:32:02;42.13;;;14.65;;
73382;SDS011;61600;48.126;11.542;2024-01-10T14:34:29;43.55;;;16.10;;
73382;SDS011;61600;48.126;11.542;2024-01-10T14:36:58;47.33;;;13.70;;
73382;SDS011;61600;48.126;11.542;2024-01-10T14:39:24;41.67;;;14.48;;
73382;SDS011;61600;48.126;11.542;2024-01-10T14:41:51;38.72;;;14.18;;
73382;SDS011;61600;48.126;11.542;2024-01-10T14:44:17;40.83;;;14.43;;
73382;SDS011;61600;48.126;11.542;2024-01-10T14:46:43;38.67;;;13.85;;
73382;SDS011;61600;48.126;11.542;2024-01-10T14:49:08;38.20;;;14.20;;
73382;SDS011;61600;48.126;11.542;2024-01-10T14:51:34;37.75;;;12.48;;
73382;SDS011;61600;48.126;11.542;2024-01-10T14:54:00;40.75;;;14.25;;
73382;SDS011;61600;48.126;11.542;2024-01-10T14:56:26;41.00;;;14.73;;